sensor_id;sensor_type;location;lat;lon;timestamp;P1;durP1;ratioP1;P2;durP2;ratioP2
14369;SDS011;7268;50.792;0.252;2022-12-29T00:00:01;31.35;;;2.58;;
14369;SDS011;7268;50.792;0.252;2022-12-29T00:02:29;29.13;;;2.80;;
14369;SDS011;7268;50.792;0.252;2022-12-29T00:04:56;33.47;;;3.13;;
14369;SDS011;7268;50.792;0.252;2022-12-29T00:07:24;27.92;;;1.95;;
14369;SDS011;7268;50.792;0.252;2022-12-29T00:09:51;29.67;;;4.88;;
14369;SDS011;7268;50.792;0.252;2022-12-29T00:12:18;42.53;;;3.42;;
14369;SDS011;7268;50.792;0.252;2022-12-29T00:14:45;32.38;;;3.35;;
14369;SDS011;7268;50.792;0.252;2022-12-29T00:17:32;22.90;;;3.00;;
14369;SDS011;7268;50.792;0.252;2022-12-29T00:19:59;32.03;;;3.10;;
14369;SDS011;7268;50.792;0.252;2022-12-29T00:22:45;36.70;;;3.10;;
14369;SDS011;7268;50.792;0.252;2022-12-29T00:25:31;25.33;;;2.40;;
14369;SDS011;7268;50.792;0.252;2022-12-29T00:28:17;39.00;;;3.22;;
14369;SDS011;7268;50.792;0.252;2022-12-29T00:31:03;39.60;;;3.65;;
14369;SDS011;7268;50.792;0.252;2022-12-29T00:33:53;28.27;;;2.72;;
14369;SDS011;7268;50.792;0.252;2022-12-29T00:36:39;36.42;;;2.70;;
14369;SDS011;7268;50.792;0.252;2022-12-29T00:39:15;20.90;;;1.67;;
14369;SDS011;7268;50.792;0.252;2022-12-29T00:42:02;26.30;;;2.20;;
14369;SDS011;7268;50.792;0.252;2022-12-29T00:44:48;38.75;;;2.85;;
14369;SDS011;7268;50.792;0.252;2022-12-29T00:47:16;37.30;;;2.50;;
14369;SDS011;7268;50.792;0.252;2022-12-29T00:49:43;26.65;;;1.95;;
14369;SDS011;7268;50.792;0.252;2022-12-29T00:52:11;31.42;;;1.85;;
14369;SDS011;7268;50.792;0.252;2022-12-29T00:54:39;26.48;;;2.30;;
14369;SDS011;7268;50.792;0.252;2022-12-29T00:57:08;35.08;;;2.95;;
14369;SDS011;7268;50.792;0.252;2022-12-29T00:59:36;36.05;;;2.08;;
14369;SDS011;7268;50.792;0.252;2022-12-29T01:02:03;32.85;;;2.33;;
14369;SDS011;7268;50.792;0.252;2022-12-29T01:04:30;29.02;;;2.90;;
14369;SDS011;7268;50.792;0.252;2022-12-29T01:06:58;33.60;;;3.20;;
14369;SDS011;7268;50.792;0.252;2022-12-29T01:09:25;28.85;;;3.40;;
14369;SDS011;7268;50.792;0.252;2022-12-29T01:12:11;26.23;;;2.38;;
14369;SDS011;7268;50.792;0.252;2022-12-29T01:14:39;41.55;;;2.97;;
14369;SDS011;7268;50.792;0.252;2022-12-29T01:17:06;25.77;;;2.35;;
14369;SDS011;7268;50.792;0.252;2022-12-29T01:19:33;27.77;;;2.17;;
14369;SDS011;7268;50.792;0.252;2022-12-29T01:22:01;25.38;;;2.80;;
14369;SDS011;7268;50.792;0.252;2022-12-29T01:24:28;34.63;;;2.67;;
14369;SDS011;7268;50.792;0.252;2022-12-29T01:26:55;34.10;;;2.08;;
14369;SDS011;7268;50.792;0.252;2022-12-29T01:29:23;28.90;;;3.25;;
14369;SDS011;7268;50.792;0.252;2022-12-29T01:31:50;46.63;;;3.60;;
14369;SDS011;7268;50.792;0.252;2022-12-29T01:34:17;10.90;;;0.90;;
14369;SDS011;7268;50.792;0.252;2022-12-29T01:36:45;17.10;;;1.52;;
14369;SDS011;7268;50.792;0.252;2022-12-29T01:39:12;21.15;;;2.78;;
14369;SDS011;7268;50.792;0.252;2022-12-29T01:41:39;23.45;;;1.63;;
14369;SDS011;7268;50.792;0.252;2022-12-29T01:46:53;14.35;;;0.82;;
14369;SDS011;7268;50.792;0.252;2022-12-29T01:49:24;24.38;;;1.70;;
14369;SDS011;7268;50.792;0.252;2022-12-29T01:51:55;13.93;;;1.38;;
14369;SDS011;7268;50.792;0.252;2022-12-29T01:54:43;29.23;;;2.05;;
14369;SDS011;7268;50.792;0.252;2022-12-29T01:57:11;33.72;;;2.38;;
14369;SDS011;7268;50.792;0.252;2022-12-29T01:59:42;41.13;;;2.70;;
14369;SDS011;7268;50.792;0.252;2022-12-29T02:02:09;35.30;;;2.28;;
14369;SDS011;7268;50.792;0.252;2022-12-29T02:04:39;29.65;;;3.38;;
14369;SDS011;7268;50.792;0.252;2022-12-29T02:07:12;28.80;;;2.80;;
14369;SDS011;7268;50.792;0.252;2022-12-29T02:09:41;16.10;;;1.77;;
14369;SDS011;7268;50.792;0.252;2022-12-29T02:12:09;29.95;;;1.90;;
14369;SDS011;7268;50.792;0.252;2022-12-29T02:14:36;20.15;;;1.10;;
14369;SDS011;7268;50.792;0.252;2022-12-29T02:25:00;35.15;;;2.15;;
14369;SDS011;7268;50.792;0.252;2022-12-29T02:40:41;24.75;;;1.55;;
14369;SDS011;7268;50.792;0.252;2022-12-29T02:51:07;25.10;;;2.03;;
14369;SDS011;7268;50.792;0.252;2022-12-29T02:53:36;20.67;;;2.75;;
14369;SDS011;7268;50.792;0.252;2022-12-29T02:56:22;17.33;;;1.88;;
14369;SDS011;7268;50.792;0.252;2022-12-29T02:58:49;21.55;;;3.03;;
14369;SDS011;7268;50.792;0.252;2022-12-29T03:01:26;19.33;;;1.40;;
14369;SDS011;7268;50.792;0.252;2022-12-29T03:08:55;20.40;;;2.05;;
14369;SDS011;7268;50.792;0.252;2022-12-29T03:11:26;39.30;;;3.45;;
14369;SDS011;7268;50.792;0.252;2022-12-29T03:14:57;33.88;;;3.08;;
14369;SDS011;7268;50.792;0.252;2022-12-29T03:17:26;24.75;;;2.47;;
14369;SDS011;7268;50.792;0.252;2022-12-29T03:20:01;23.15;;;1.92;;
14369;SDS011;7268;50.792;0.252;2022-12-29T03:22:31;33.72;;;3.83;;
14369;SDS011;7268;50.792;0.252;2022-12-29T03:25:46;32.55;;;2.30;;
14369;SDS011;7268;50.792;0.252;2022-12-29T03:27:49;30.05;;;2.42;;
14369;SDS011;7268;50.792;0.252;2022-12-29T03:30:16;41.97;;;3.63;;
14369;SDS011;7268;50.792;0.252;2022-12-29T03:33:01;31.98;;;3.03;;
14369;SDS011;7268;50.792;0.252;2022-12-29T03:35:30;35.33;;;3.50;;
14369;SDS011;7268;50.792;0.252;2022-12-29T03:37:59;28.48;;;3.88;;
14369;SDS011;7268;50.792;0.252;2022-12-29T03:40:28;37.90;;;3.22;;
14369;SDS011;7268;50.792;0.252;2022-12-29T03:42:55;30.00;;;3.60;;
14369;SDS011;7268;50.792;0.252;2022-12-29T03:45:23;45.03;;;3.58;;
14369;SDS011;7268;50.792;0.252;2022-12-29T03:47:50;38.67;;;3.80;;
14369;SDS011;7268;50.792;0.252;2022-12-29T03:50:17;19.77;;;3.28;;
14369;SDS011;7268;50.792;0.252;2022-12-29T03:52:45;32.38;;;4.03;;
14369;SDS011;7268;50.792;0.252;2022-12-29T03:55:12;39.20;;;3.63;;
14369;SDS011;7268;50.792;0.252;2022-12-29T03:57:39;49.15;;;4.47;;
14369;SDS011;7268;50.792;0.252;2022-12-29T04:00:07;30.35;;;4.10;;
14369;SDS011;7268;50.792;0.252;2022-12-29T04:02:34;41.95;;;3.28;;
14369;SDS011;7268;50.792;0.252;2022-12-29T04:05:02;49.50;;;3.65;;
14369;SDS011;7268;50.792;0.252;2022-12-29T04:07:29;36.20;;;3.13;;
14369;SDS011;7268;50.792;0.252;2022-12-29T04:09:56;29.55;;;2.88;;
14369;SDS011;7268;50.792;0.252;2022-12-29T04:12:23;30.67;;;3.13;;
14369;SDS011;7268;50.792;0.252;2022-12-29T04:14:50;36.63;;;2.90;;
14369;SDS011;7268;50.792;0.252;2022-12-29T04:17:18;21.17;;;2.83;;
14369;SDS011;7268;50.792;0.252;2022-12-29T04:19:45;33.25;;;2.80;;
14369;SDS011;7268;50.792;0.252;2022-12-29T04:22:12;49.55;;;3.47;;
14369;SDS011;7268;50.792;0.252;2022-12-29T04:24:39;26.10;;;2.72;;
14369;SDS011;7268;50.792;0.252;2022-12-29T04:27:07;28.80;;;2.58;;
14369;SDS011;7268;50.792;0.252;2022-12-29T04:29:34;25.65;;;2.13;;
14369;SDS011;7268;50.792;0.252;2022-12-29T04:32:01;29.10;;;2.67;;
14369;SDS011;7268;50.792;0.252;2022-12-29T04:34:28;36.15;;;4.13;;
14369;SDS011;7268;50.792;0.252;2022-12-29T04:36:55;38.75;;;3.30;;
14369;SDS011;7268;50.792;0.252;2022-12-29T04:39:22;45.95;;;4.30;;
14369;SDS011;7268;50.792;0.252;2022-12-29T04:41:50;54.90;;;4.60;;
14369;SDS011;7268;50.792;0.252;2022-12-29T04:44:17;39.75;;;3.53;;
14369;SDS011;7268;50.792;0.252;2022-12-29T04:46:44;47.80;;;5.15;;
14369;SDS011;7268;50.792;0.252;2022-12-29T04:49:11;29.75;;;3.85;;
14369;SDS011;7268;50.792;0.252;2022-12-29T04:51:39;32.28;;;4.00;;
14369;SDS011;7268;50.792;0.252;2022-12-29T04:54:06;42.33;;;4.65;;
14369;SDS011;7268;50.792;0.252;2022-12-29T04:56:33;45.90;;;5.53;;
14369;SDS011;7268;50.792;0.252;2022-12-29T04:59:01;45.65;;;4.10;;
14369;SDS011;7268;50.792;0.252;2022-12-29T05:01:28;33.10;;;3.30;;
14369;SDS011;7268;50.792;0.252;2022-12-29T05:03:55;45.40;;;4.20;;
14369;SDS011;7268;50.792;0.252;2022-12-29T05:06:23;44.42;;;3.90;;
14369;SDS011;7268;50.792;0.252;2022-12-29T05:08:50;63.58;;;5.03;;
14369;SDS011;7268;50.792;0.252;2022-12-29T05:11:17;34.65;;;5.05;;
14369;SDS011;7268;50.792;0.252;2022-12-29T05:13:45;31.27;;;3.63;;
14369;SDS011;7268;50.792;0.252;2022-12-29T05:16:12;37.58;;;3.45;;
14369;SDS011;7268;50.792;0.252;2022-12-29T05:18:40;46.22;;;4.30;;
14369;SDS011;7268;50.792;0.252;2022-12-29T05:21:07;51.70;;;5.63;;
14369;SDS011;7268;50.792;0.252;2022-12-29T05:23:34;39.55;;;4.82;;
14369;SDS011;7268;50.792;0.252;2022-12-29T05:26:01;47.30;;;4.95;;
14369;SDS011;7268;50.792;0.252;2022-12-29T05:28:29;52.88;;;4.32;;
14369;SDS011;7268;50.792;0.252;2022-12-29T05:30:56;50.72;;;3.90;;
14369;SDS011;7268;50.792;0.252;2022-12-29T05:33:23;38.42;;;6.47;;
14369;SDS011;7268;50.792;0.252;2022-12-29T05:35:50;29.23;;;3.63;;
14369;SDS011;7268;50.792;0.252;2022-12-29T05:38:18;42.58;;;3.92;;
14369;SDS011;7268;50.792;0.252;2022-12-29T05:40:45;35.95;;;3.50;;
14369;SDS011;7268;50.792;0.252;2022-12-29T05:43:12;55.28;;;4.80;;
14369;SDS011;7268;50.792;0.252;2022-12-29T05:45:39;39.03;;;5.00;;
14369;SDS011;7268;50.792;0.252;2022-12-29T05:48:06;48.78;;;3.13;;
14369;SDS011;7268;50.792;0.252;2022-12-29T05:50:34;36.50;;;5.85;;
14369;SDS011;7268;50.792;0.252;2022-12-29T05:53:01;57.13;;;5.20;;
14369;SDS011;7268;50.792;0.252;2022-12-29T05:55:28;30.85;;;3.25;;
14369;SDS011;7268;50.792;0.252;2022-12-29T05:57:55;33.22;;;3.03;;
14369;SDS011;7268;50.792;0.252;2022-12-29T06:00:23;39.45;;;4.38;;
14369;SDS011;7268;50.792;0.252;2022-12-29T06:02:50;44.45;;;5.85;;
14369;SDS011;7268;50.792;0.252;2022-12-29T06:05:18;49.72;;;3.60;;
14369;SDS011;7268;50.792;0.252;2022-12-29T06:07:45;34.78;;;3.30;;
14369;SDS011;7268;50.792;0.252;2022-12-29T06:10:12;41.00;;;3.42;;
14369;SDS011;7268;50.792;0.252;2022-12-29T06:12:39;29.13;;;3.08;;
14369;SDS011;7268;50.792;0.252;2022-12-29T06:15:07;30.35;;;3.50;;
14369;SDS011;7268;50.792;0.252;2022-12-29T06:17:34;29.77;;;2.50;;
14369;SDS011;7268;50.792;0.252;2022-12-29T06:20:01;32.28;;;2.53;;
14369;SDS011;7268;50.792;0.252;2022-12-29T06:22:29;27.77;;;2.90;;
14369;SDS011;7268;50.792;0.252;2022-12-29T06:24:56;26.00;;;3.13;;
14369;SDS011;7268;50.792;0.252;2022-12-29T06:27:30;40.20;;;3.15;;
14369;SDS011;7268;50.792;0.252;2022-12-29T06:29:57;22.98;;;3.10;;
14369;SDS011;7268;50.792;0.252;2022-12-29T06:32:25;25.05;;;2.53;;
14369;SDS011;7268;50.792;0.252;2022-12-29T06:34:52;40.95;;;3.42;;
14369;SDS011;7268;50.792;0.252;2022-12-29T06:37:19;25.80;;;2.92;;
14369;SDS011;7268;50.792;0.252;2022-12-29T06:39:46;18.40;;;2.75;;
14369;SDS011;7268;50.792;0.252;2022-12-29T06:42:13;27.70;;;2.83;;
14369;SDS011;7268;50.792;0.252;2022-12-29T06:44:41;26.95;;;3.53;;
14369;SDS011;7268;50.792;0.252;2022-12-29T06:47:09;38.90;;;2.75;;
14369;SDS011;7268;50.792;0.252;2022-12-29T06:49:36;22.63;;;1.98;;
14369;SDS011;7268;50.792;0.252;2022-12-29T06:52:03;29.60;;;2.58;;
14369;SDS011;7268;50.792;0.252;2022-12-29T06:54:37;15.07;;;1.42;;
14369;SDS011;7268;50.792;0.252;2022-12-29T06:57:04;30.67;;;1.75;;
14369;SDS011;7268;50.792;0.252;2022-12-29T06:59:32;26.13;;;2.90;;
14369;SDS011;7268;50.792;0.252;2022-12-29T07:01:59;25.70;;;2.13;;
14369;SDS011;7268;50.792;0.252;2022-12-29T07:04:28;15.93;;;1.25;;
14369;SDS011;7268;50.792;0.252;2022-12-29T07:06:56;21.90;;;2.35;;
14369;SDS011;7268;50.792;0.252;2022-12-29T07:09:23;25.33;;;1.88;;
14369;SDS011;7268;50.792;0.252;2022-12-29T07:11:50;33.92;;;2.85;;
14369;SDS011;7268;50.792;0.252;2022-12-29T07:14:18;18.88;;;1.40;;
14369;SDS011;7268;50.792;0.252;2022-12-29T07:16:45;26.42;;;2.00;;
14369;SDS011;7268;50.792;0.252;2022-12-29T07:19:12;19.17;;;2.10;;
14369;SDS011;7268;50.792;0.252;2022-12-29T07:21:39;14.52;;;1.08;;
14369;SDS011;7268;50.792;0.252;2022-12-29T07:24:13;12.85;;;1.27;;
14369;SDS011;7268;50.792;0.252;2022-12-29T07:26:40;21.02;;;1.60;;
14369;SDS011;7268;50.792;0.252;2022-12-29T07:29:08;14.00;;;0.98;;
14369;SDS011;7268;50.792;0.252;2022-12-29T07:31:35;15.15;;;1.02;;
14369;SDS011;7268;50.792;0.252;2022-12-29T07:34:02;16.35;;;1.50;;
14369;SDS011;7268;50.792;0.252;2022-12-29T07:36:29;10.45;;;1.08;;
14369;SDS011;7268;50.792;0.252;2022-12-29T07:39:00;14.50;;;1.23;;
14369;SDS011;7268;50.792;0.252;2022-12-29T07:41:27;13.55;;;1.40;;
14369;SDS011;7268;50.792;0.252;2022-12-29T07:43:54;7.55;;;0.90;;
14369;SDS011;7268;50.792;0.252;2022-12-29T07:46:22;13.50;;;0.80;;
14369;SDS011;7268;50.792;0.252;2022-12-29T07:49:09;6.78;;;0.77;;
14369;SDS011;7268;50.792;0.252;2022-12-29T07:51:36;17.50;;;1.30;;
14369;SDS011;7268;50.792;0.252;2022-12-29T07:54:03;12.10;;;1.08;;
14369;SDS011;7268;50.792;0.252;2022-12-29T07:56:30;14.55;;;1.05;;
14369;SDS011;7268;50.792;0.252;2022-12-29T07:58:58;15.35;;;1.10;;
14369;SDS011;7268;50.792;0.252;2022-12-29T08:01:25;7.85;;;1.95;;
14369;SDS011;7268;50.792;0.252;2022-12-29T08:03:52;14.38;;;0.95;;
14369;SDS011;7268;50.792;0.252;2022-12-29T08:06:22;11.48;;;1.00;;
14369;SDS011;7268;50.792;0.252;2022-12-29T08:08:50;11.75;;;0.80;;
14369;SDS011;7268;50.792;0.252;2022-12-29T08:11:17;19.67;;;1.02;;
14369;SDS011;7268;50.792;0.252;2022-12-29T08:13:44;11.82;;;0.85;;
14369;SDS011;7268;50.792;0.252;2022-12-29T08:16:12;15.23;;;2.58;;
14369;SDS011;7268;50.792;0.252;2022-12-29T08:18:39;23.10;;;1.15;;
14369;SDS011;7268;50.792;0.252;2022-12-29T08:21:06;6.38;;;0.70;;
14369;SDS011;7268;50.792;0.252;2022-12-29T08:23:33;16.23;;;0.90;;
14369;SDS011;7268;50.792;0.252;2022-12-29T08:26:01;21.17;;;2.25;;
14369;SDS011;7268;50.792;0.252;2022-12-29T08:28:29;13.85;;;1.23;;
14369;SDS011;7268;50.792;0.252;2022-12-29T08:30:57;9.95;;;0.80;;
14369;SDS011;7268;50.792;0.252;2022-12-29T08:33:24;20.00;;;1.63;;
14369;SDS011;7268;50.792;0.252;2022-12-29T08:35:52;19.25;;;1.17;;
14369;SDS011;7268;50.792;0.252;2022-12-29T08:38:19;18.90;;;1.27;;
14369;SDS011;7268;50.792;0.252;2022-12-29T08:40:46;15.57;;;0.90;;
14369;SDS011;7268;50.792;0.252;2022-12-29T08:43:13;16.63;;;1.23;;
14369;SDS011;7268;50.792;0.252;2022-12-29T08:45:43;13.93;;;0.98;;
14369;SDS011;7268;50.792;0.252;2022-12-29T08:48:11;19.70;;;1.45;;
14369;SDS011;7268;50.792;0.252;2022-12-29T08:50:38;16.17;;;1.50;;
14369;SDS011;7268;50.792;0.252;2022-12-29T08:53:05;22.02;;;1.40;;
14369;SDS011;7268;50.792;0.252;2022-12-29T08:55:32;20.65;;;1.35;;
14369;SDS011;7268;50.792;0.252;2022-12-29T08:57:59;26.52;;;2.05;;
14369;SDS011;7268;50.792;0.252;2022-12-29T09:00:27;16.98;;;1.48;;
14369;SDS011;7268;50.792;0.252;2022-12-29T09:02:54;26.27;;;1.83;;
14369;SDS011;7268;50.792;0.252;2022-12-29T09:05:21;22.25;;;1.70;;
14369;SDS011;7268;50.792;0.252;2022-12-29T09:07:49;21.63;;;1.52;;
14369;SDS011;7268;50.792;0.252;2022-12-29T09:10:16;15.35;;;1.35;;
14369;SDS011;7268;50.792;0.252;2022-12-29T09:12:43;14.18;;;1.25;;
14369;SDS011;7268;50.792;0.252;2022-12-29T09:15:11;20.88;;;1.48;;
14369;SDS011;7268;50.792;0.252;2022-12-29T09:17:39;14.35;;;1.33;;
14369;SDS011;7268;50.792;0.252;2022-12-29T09:20:16;17.02;;;1.45;;
14369;SDS011;7268;50.792;0.252;2022-12-29T09:22:43;21.80;;;2.15;;
14369;SDS011;7268;50.792;0.252;2022-12-29T09:25:11;14.60;;;1.30;;
14369;SDS011;7268;50.792;0.252;2022-12-29T09:27:38;23.83;;;1.23;;
14369;SDS011;7268;50.792;0.252;2022-12-29T09:30:07;26.42;;;1.30;;
14369;SDS011;7268;50.792;0.252;2022-12-29T09:32:35;13.52;;;1.00;;
14369;SDS011;7268;50.792;0.252;2022-12-29T09:35:10;22.92;;;1.15;;
14369;SDS011;7268;50.792;0.252;2022-12-29T09:37:37;21.23;;;1.10;;
14369;SDS011;7268;50.792;0.252;2022-12-29T09:40:05;22.48;;;1.42;;
14369;SDS011;7268;50.792;0.252;2022-12-29T09:47:36;16.00;;;1.55;;
14369;SDS011;7268;50.792;0.252;2022-12-29T09:50:05;10.15;;;1.50;;
14369;SDS011;7268;50.792;0.252;2022-12-29T09:52:36;17.80;;;0.98;;
14369;SDS011;7268;50.792;0.252;2022-12-29T09:57:46;14.00;;;1.02;;
14369;SDS011;7268;50.792;0.252;2022-12-29T10:00:16;9.15;;;0.75;;
14369;SDS011;7268;50.792;0.252;2022-12-29T10:02:44;23.20;;;1.00;;
14369;SDS011;7268;50.792;0.252;2022-12-29T10:05:18;12.75;;;0.90;;
14369;SDS011;7268;50.792;0.252;2022-12-29T10:10:38;14.60;;;1.25;;
14369;SDS011;7268;50.792;0.252;2022-12-29T10:21:00;12.10;;;0.77;;
14369;SDS011;7268;50.792;0.252;2022-12-29T10:23:36;16.67;;;0.90;;
14369;SDS011;7268;50.792;0.252;2022-12-29T10:26:09;17.48;;;0.80;;
14369;SDS011;7268;50.792;0.252;2022-12-29T10:31:22;20.27;;;1.33;;
14369;SDS011;7268;50.792;0.252;2022-12-29T10:33:51;11.40;;;1.02;;
14369;SDS011;7268;50.792;0.252;2022-12-29T10:36:30;7.95;;;1.08;;
14369;SDS011;7268;50.792;0.252;2022-12-29T10:39:37;13.88;;;0.90;;
14369;SDS011;7268;50.792;0.252;2022-12-29T10:44:40;15.00;;;0.85;;
14369;SDS011;7268;50.792;0.252;2022-12-29T10:47:18;15.63;;;0.73;;
14369;SDS011;7268;50.792;0.252;2022-12-29T10:49:46;14.85;;;1.05;;
14369;SDS011;7268;50.792;0.252;2022-12-29T10:52:15;12.68;;;0.80;;
14369;SDS011;7268;50.792;0.252;2022-12-29T10:57:11;6.35;;;0.90;;
14369;SDS011;7268;50.792;0.252;2022-12-29T10:59:41;11.10;;;1.00;;
14369;SDS011;7268;50.792;0.252;2022-12-29T11:07:06;13.77;;;0.88;;
14369;SDS011;7268;50.792;0.252;2022-12-29T11:09:41;16.77;;;1.83;;
14369;SDS011;7268;50.792;0.252;2022-12-29T11:12:20;13.20;;;0.93;;
14369;SDS011;7268;50.792;0.252;2022-12-29T11:14:47;10.30;;;1.13;;
14369;SDS011;7268;50.792;0.252;2022-12-29T11:17:27;9.55;;;0.98;;
14369;SDS011;7268;50.792;0.252;2022-12-29T11:19:54;8.80;;;1.30;;
14369;SDS011;7268;50.792;0.252;2022-12-29T11:22:22;9.77;;;1.33;;
14369;SDS011;7268;50.792;0.252;2022-12-29T11:24:51;11.85;;;1.00;;
14369;SDS011;7268;50.792;0.252;2022-12-29T11:27:21;13.32;;;1.20;;
14369;SDS011;7268;50.792;0.252;2022-12-29T11:29:50;8.13;;;0.90;;
14369;SDS011;7268;50.792;0.252;2022-12-29T11:32:19;18.45;;;0.90;;
14369;SDS011;7268;50.792;0.252;2022-12-29T11:34:53;7.70;;;0.70;;
14369;SDS011;7268;50.792;0.252;2022-12-29T11:37:26;10.20;;;1.08;;
14369;SDS011;7268;50.792;0.252;2022-12-29T11:42:35;8.50;;;0.73;;
14369;SDS011;7268;50.792;0.252;2022-12-29T11:45:04;8.25;;;1.00;;
14369;SDS011;7268;50.792;0.252;2022-12-29T11:47:36;19.15;;;1.20;;
14369;SDS011;7268;50.792;0.252;2022-12-29T11:50:04;9.80;;;0.73;;
14369;SDS011;7268;50.792;0.252;2022-12-29T11:52:34;14.95;;;0.80;;
14369;SDS011;7268;50.792;0.252;2022-12-29T11:55:03;15.40;;;1.13;;
14369;SDS011;7268;50.792;0.252;2022-12-29T11:57:32;15.25;;;0.75;;
14369;SDS011;7268;50.792;0.252;2022-12-29T12:00:02;11.60;;;1.02;;
14369;SDS011;7268;50.792;0.252;2022-12-29T12:07:38;14.25;;;1.27;;
14369;SDS011;7268;50.792;0.252;2022-12-29T12:10:08;19.55;;;1.20;;
14369;SDS011;7268;50.792;0.252;2022-12-29T12:12:39;13.25;;;1.13;;
14369;SDS011;7268;50.792;0.252;2022-12-29T12:15:12;21.98;;;1.15;;
14369;SDS011;7268;50.792;0.252;2022-12-29T12:17:44;18.20;;;1.30;;
14369;SDS011;7268;50.792;0.252;2022-12-29T12:22:43;24.95;;;1.17;;
14369;SDS011;7268;50.792;0.252;2022-12-29T12:25:34;22.77;;;1.30;;
14369;SDS011;7268;50.792;0.252;2022-12-29T12:30:39;16.30;;;1.45;;
14369;SDS011;7268;50.792;0.252;2022-12-29T12:35:47;27.25;;;1.90;;
14369;SDS011;7268;50.792;0.252;2022-12-29T12:41:06;17.58;;;1.35;;
14369;SDS011;7268;50.792;0.252;2022-12-29T12:51:38;9.00;;;0.90;;
14369;SDS011;7268;50.792;0.252;2022-12-29T12:54:35;12.73;;;1.00;;
14369;SDS011;7268;50.792;0.252;2022-12-29T12:59:36;19.35;;;1.20;;
14369;SDS011;7268;50.792;0.252;2022-12-29T13:12:25;17.25;;;0.93;;
14369;SDS011;7268;50.792;0.252;2022-12-29T13:17:34;19.27;;;1.30;;
14369;SDS011;7268;50.792;0.252;2022-12-29T13:20:16;18.70;;;1.52;;
14369;SDS011;7268;50.792;0.252;2022-12-29T13:23:07;18.48;;;1.35;;
14369;SDS011;7268;50.792;0.252;2022-12-29T13:25:45;14.63;;;0.95;;
14369;SDS011;7268;50.792;0.252;2022-12-29T13:28:25;19.50;;;0.95;;
14369;SDS011;7268;50.792;0.252;2022-12-29T13:34:12;19.88;;;1.98;;
14369;SDS011;7268;50.792;0.252;2022-12-29T13:36:25;17.45;;;1.55;;
14369;SDS011;7268;50.792;0.252;2022-12-29T13:41:33;13.55;;;1.50;;
14369;SDS011;7268;50.792;0.252;2022-12-29T13:44:02;16.50;;;2.08;;
14369;SDS011;7268;50.792;0.252;2022-12-29T13:46:34;17.30;;;1.98;;
14369;SDS011;7268;50.792;0.252;2022-12-29T13:49:11;31.63;;;2.45;;
14369;SDS011;7268;50.792;0.252;2022-12-29T13:51:44;21.40;;;1.73;;
14369;SDS011;7268;50.792;0.252;2022-12-29T13:59:33;21.08;;;1.35;;
14369;SDS011;7268;50.792;0.252;2022-12-29T14:05:05;18.42;;;1.80;;
14369;SDS011;7268;50.792;0.252;2022-12-29T14:07:36;16.73;;;2.00;;
14369;SDS011;7268;50.792;0.252;2022-12-29T14:10:04;15.38;;;1.73;;
14369;SDS011;7268;50.792;0.252;2022-12-29T14:17:39;14.68;;;1.10;;
14369;SDS011;7268;50.792;0.252;2022-12-29T14:20:17;20.08;;;2.58;;
14369;SDS011;7268;50.792;0.252;2022-12-29T14:28:16;22.63;;;1.73;;
14369;SDS011;7268;50.792;0.252;2022-12-29T14:30:51;18.67;;;1.50;;
14369;SDS011;7268;50.792;0.252;2022-12-29T14:33:19;16.30;;;1.20;;
14369;SDS011;7268;50.792;0.252;2022-12-29T14:35:48;11.65;;;1.05;;
14369;SDS011;7268;50.792;0.252;2022-12-29T14:38:20;14.20;;;1.50;;
14369;SDS011;7268;50.792;0.252;2022-12-29T14:40:48;19.20;;;1.38;;
14369;SDS011;7268;50.792;0.252;2022-12-29T14:43:20;21.80;;;1.27;;
14369;SDS011;7268;50.792;0.252;2022-12-29T14:45:52;16.60;;;1.10;;
14369;SDS011;7268;50.792;0.252;2022-12-29T14:48:33;20.02;;;1.60;;
14369;SDS011;7268;50.792;0.252;2022-12-29T14:51:01;27.58;;;1.77;;
14369;SDS011;7268;50.792;0.252;2022-12-29T14:56:09;18.40;;;1.90;;
14369;SDS011;7268;50.792;0.252;2022-12-29T14:58:47;22.60;;;1.77;;
14369;SDS011;7268;50.792;0.252;2022-12-29T15:01:26;23.42;;;2.08;;
14369;SDS011;7268;50.792;0.252;2022-12-29T15:03:56;18.10;;;1.33;;
14369;SDS011;7268;50.792;0.252;2022-12-29T15:06:25;18.67;;;1.52;;
14369;SDS011;7268;50.792;0.252;2022-12-29T15:09:41;24.90;;;1.77;;
14369;SDS011;7268;50.792;0.252;2022-12-29T15:11:47;25.38;;;2.28;;
14369;SDS011;7268;50.792;0.252;2022-12-29T15:16:54;23.63;;;1.83;;
14369;SDS011;7268;50.792;0.252;2022-12-29T15:19:22;16.90;;;1.30;;
14369;SDS011;7268;50.792;0.252;2022-12-29T15:21:49;12.18;;;1.25;;
14369;SDS011;7268;50.792;0.252;2022-12-29T15:24:16;23.25;;;2.55;;
14369;SDS011;7268;50.792;0.252;2022-12-29T15:26:46;22.58;;;1.58;;
14369;SDS011;7268;50.792;0.252;2022-12-29T15:32:00;15.30;;;1.48;;
14369;SDS011;7268;50.792;0.252;2022-12-29T15:34:30;17.80;;;1.13;;
14369;SDS011;7268;50.792;0.252;2022-12-29T15:36:58;12.95;;;1.17;;
14369;SDS011;7268;50.792;0.252;2022-12-29T15:39:29;12.45;;;1.00;;
14369;SDS011;7268;50.792;0.252;2022-12-29T15:42:00;11.65;;;1.02;;
14369;SDS011;7268;50.792;0.252;2022-12-29T15:46:57;15.35;;;1.55;;
14369;SDS011;7268;50.792;0.252;2022-12-29T15:49:28;13.32;;;2.28;;
14369;SDS011;7268;50.792;0.252;2022-12-29T15:51:58;14.63;;;1.00;;
14369;SDS011;7268;50.792;0.252;2022-12-29T15:54:26;19.70;;;1.58;;
14369;SDS011;7268;50.792;0.252;2022-12-29T15:56:54;15.63;;;1.45;;
14369;SDS011;7268;50.792;0.252;2022-12-29T15:59:26;28.13;;;1.58;;
14369;SDS011;7268;50.792;0.252;2022-12-29T16:01:55;12.15;;;1.30;;
14369;SDS011;7268;50.792;0.252;2022-12-29T16:04:23;17.38;;;1.45;;
14369;SDS011;7268;50.792;0.252;2022-12-29T16:07:00;19.35;;;1.17;;
14369;SDS011;7268;50.792;0.252;2022-12-29T16:09:34;19.98;;;1.20;;
14369;SDS011;7268;50.792;0.252;2022-12-29T16:12:02;26.65;;;2.80;;
14369;SDS011;7268;50.792;0.252;2022-12-29T16:14:50;14.95;;;1.40;;
14369;SDS011;7268;50.792;0.252;2022-12-29T16:17:19;20.60;;;1.35;;
14369;SDS011;7268;50.792;0.252;2022-12-29T16:19:51;21.75;;;3.97;;
14369;SDS011;7268;50.792;0.252;2022-12-29T16:22:30;18.42;;;1.40;;
14369;SDS011;7268;50.792;0.252;2022-12-29T16:24:59;11.27;;;1.20;;
14369;SDS011;7268;50.792;0.252;2022-12-29T16:27:40;13.82;;;1.42;;
14369;SDS011;7268;50.792;0.252;2022-12-29T16:33:05;9.65;;;0.90;;
14369;SDS011;7268;50.792;0.252;2022-12-29T16:38:10;7.82;;;0.98;;
14369;SDS011;7268;50.792;0.252;2022-12-29T16:40:49;8.07;;;1.10;;
14369;SDS011;7268;50.792;0.252;2022-12-29T16:50:45;15.77;;;1.08;;
14369;SDS011;7268;50.792;0.252;2022-12-29T16:55:46;16.45;;;1.30;;
14369;SDS011;7268;50.792;0.252;2022-12-29T16:58:20;23.48;;;1.75;;
14369;SDS011;7268;50.792;0.252;2022-12-29T17:00:48;16.90;;;1.00;;
14369;SDS011;7268;50.792;0.252;2022-12-29T17:03:16;14.05;;;1.25;;
14369;SDS011;7268;50.792;0.252;2022-12-29T17:05:43;20.63;;;1.83;;
14369;SDS011;7268;50.792;0.252;2022-12-29T17:08:17;20.52;;;1.75;;
14369;SDS011;7268;50.792;0.252;2022-12-29T17:10:52;26.15;;;2.13;;
14369;SDS011;7268;50.792;0.252;2022-12-29T17:13:39;18.27;;;1.83;;
14369;SDS011;7268;50.792;0.252;2022-12-29T17:16:07;15.35;;;1.27;;
14369;SDS011;7268;50.792;0.252;2022-12-29T17:18:36;25.92;;;2.03;;
14369;SDS011;7268;50.792;0.252;2022-12-29T17:21:03;17.90;;;2.13;;
14369;SDS011;7268;50.792;0.252;2022-12-29T17:23:31;20.58;;;1.20;;
14369;SDS011;7268;50.792;0.252;2022-12-29T17:26:00;21.30;;;2.10;;
14369;SDS011;7268;50.792;0.252;2022-12-29T17:28:28;22.45;;;1.88;;
14369;SDS011;7268;50.792;0.252;2022-12-29T17:31:01;25.85;;;2.08;;
14369;SDS011;7268;50.792;0.252;2022-12-29T17:33:29;16.95;;;1.50;;
14369;SDS011;7268;50.792;0.252;2022-12-29T17:35:58;15.57;;;1.30;;
14369;SDS011;7268;50.792;0.252;2022-12-29T17:38:29;31.10;;;3.78;;
14369;SDS011;7268;50.792;0.252;2022-12-29T17:40:57;22.00;;;1.70;;
14369;SDS011;7268;50.792;0.252;2022-12-29T17:43:24;15.10;;;1.98;;
14369;SDS011;7268;50.792;0.252;2022-12-29T17:46:01;24.25;;;2.25;;